Tijeras, New Mexico
Current Conditions -  °F | °C
As of 4:52 PM on Friday 21 Nov 2014 (Local Time) from KABQ Reporting Station
Broken Clouds Broken Clouds  
Wind Chill: 50°   Ceiling: 15000
Heat Index: 50°   Visibility: 10mi
Dew Point: 15°   Wind: 3mph
Humidity: 25%   Direction: 60°ENE
Pressure: 30.02"   Gusts: NA
Location:  35.08°N, 106.39°W
Report Text: KABQ 212352Z 06003KT 10SM BKN150 BKN220 10/M09 A3002 RMK AO2 SLP147 T01001094 10117 20072 53004
Loading
Personal Weather Stations






























Interactive Weather Map New forecast layout! Learn more

10-Day Weather Forecast

Advertisements
Track Severe Weather on mobile